KEZS

Shawano Municipal Airport

Shawano, Wisconsin, USA
METAR KEZS 201915Z AUTO 33013G24KT 10SM BKN042 BKN048 04/M05 A3002 RMK AO2 T00351052
Observed Flight Rules
Oct-20 @ 19:15 UTC (8 minutes ago) Visual Flight Rules
Wind Visibility Clouds
330° at 13 knots
 Gusting to 24 knots
10 miles
  • Broken at 4,200' AGL
  • Broken at 4,800' AGL
Temperatures Readings
Current 4°C / 39°F
Dewpoint -5°C / 23°F
Humidity 52%
Altimeter 30.02" Hg
Pressure 1017 hPa
Elevation 248
METAR KEZS 201915Z AUTO 33013G24KT 10SM BKN042 BKN048 04/M05 A3002 RMK AO2 T00351052
Observed Flight Rules
Oct-20 @ 19:15 UTC
(8 minutes ago)
VFR
Wind Visibility
330° at 13 knots
 Gusting to 24 knots
10 miles
Clouds
  • Broken at 4,200' AGL
  • Broken at 4,800' AGL
Temperature Dewpoint
4°C / 39°F -5°C / 23°F
Humidity Altimeter Pressure
52% 30.02" Hg 1017 hPa